Terminal Aerodrome Forecast
Issued by NWS Portland, OR

Home | Current Version | Previous Version | Text Only | Print | Product List | Glossary On
Versions: 1 2 3 4 5 6 7 8 9 10 11 12 13 14 15 16 17 18 19 20 21 22 23 24 25 26 27 28 29 30
456
FTUS46 KPQR 181727
TAFSLE
TAF
KSLE 181727Z 1818/1918 00000KT 1/4SM FG VV002
     FM181900 00000KT 1SM BR OVC002
     FM182100 VRB03KT 6SM BR BKN004
     FM182330 VRB03KT P6SM SCT008
     FM190030 00000KT 5SM BR BKN008
     FM190130 00000KT 1SM BR BKN004
     FM190300 00000KT 1/2SM FG VV002=

USA.gov is the U.S. government's official web portal to all federal, state and local government web resources and services.